CYZH

Slave Lake Airport

Slave Lake, Alberta, Canada

CYZH 110800Z AUTO VRB02KT 9SM CLR M02/M04 A3028 RMK SLP282

Observed Flight Rules
Dec-11 @ 08:00 UTC (an hour ago) Visual Flight Rules
Wind Visibility Clouds
Variable at 2 knots 9 miles
  • Clear skies
Temperatures Readings
Current -2°C / 28°F
Dewpoint -4°C / 25°F
Humidity 86%
Altimeter 30.28" Hg
Pressure 1028.2 hPa
Elevation 581
Observed Flight Rules
Dec-11 @ 08:00 UTC
(an hour ago)
VFR
Wind Visibility
Variable at 2 knots 9 miles
Clouds
  • Clear skies
Temperature Dewpoint
-2°C / 28°F -4°C / 25°F
Humidity Altimeter Pressure
86% 30.28" Hg 1028.2 hPa